createdAt,value
2019-01-29T00:00:53.169Z,983.41
2019-01-29T00:01:53.149Z,983.38
2019-01-29T00:02:53.179Z,983.45
2019-01-29T00:03:53.126Z,983.47
2019-01-29T00:04:53.112Z,983.47
2019-01-29T00:05:53.102Z,983.51
2019-01-29T00:06:53.096Z,983.47
2019-01-29T00:07:53.104Z,983.50
2019-01-29T00:08:53.069Z,983.55
2019-01-29T00:09:53.073Z,983.51
2019-01-29T00:10:53.045Z,983.60
2019-01-29T00:11:53.058Z,983.56
2019-01-29T00:12:53.024Z,983.60
2019-01-29T00:13:53.014Z,983.53
2019-01-29T00:14:53.009Z,983.56
2019-01-29T00:15:52.991Z,983.60
2019-01-29T00:16:53.003Z,983.59
2019-01-29T00:17:52.969Z,983.63
2019-01-29T00:18:52.957Z,983.60
2019-01-29T00:19:52.946Z,983.62
2019-01-29T00:20:52.967Z,983.60
2019-01-29T00:21:52.923Z,983.65
2019-01-29T00:22:52.913Z,983.62
2019-01-29T00:23:52.902Z,983.60
2019-01-29T00:24:52.890Z,983.61
2019-01-29T00:25:52.901Z,983.66
2019-01-29T00:26:52.899Z,983.62
2019-01-29T00:27:52.856Z,983.64
2019-01-29T00:28:52.849Z,983.67
2019-01-29T00:29:52.837Z,983.67
2019-01-29T00:30:52.847Z,983.71
2019-01-29T00:31:52.813Z,983.70
2019-01-29T00:32:52.833Z,983.74
2019-01-29T00:33:52.801Z,983.72
2019-01-29T00:34:52.781Z,983.70
2019-01-29T00:35:52.769Z,983.67
2019-01-29T00:36:52.757Z,983.70
2019-01-29T00:37:52.771Z,983.73
2019-01-29T00:38:52.735Z,983.74
2019-01-29T00:39:52.734Z,983.71
2019-01-29T00:40:52.714Z,983.74
2019-01-29T00:41:52.726Z,983.76
2019-01-29T00:42:52.696Z,983.72
2019-01-29T00:43:52.680Z,983.74
2019-01-29T00:44:52.692Z,983.76
2019-01-29T00:45:52.664Z,983.74
2019-01-29T00:46:52.648Z,983.75
2019-01-29T00:47:52.637Z,983.81
2019-01-29T00:48:52.625Z,983.79
2019-01-29T00:49:52.641Z,983.79
2019-01-29T00:50:52.605Z,983.77
2019-01-29T00:51:52.617Z,983.83
2019-01-29T00:52:52.597Z,983.82
2019-01-29T00:53:52.570Z,983.85
2019-01-29T00:54:52.560Z,983.88
2019-01-29T00:55:52.572Z,983.90
2019-01-29T00:56:52.537Z,983.90
2019-01-29T00:57:52.534Z,983.90
2019-01-29T00:58:52.517Z,983.95
2019-01-29T00:59:52.562Z,983.99
2019-01-29T01:00:52.508Z,983.97
2019-01-29T01:01:52.481Z,984.01
2019-01-29T01:02:52.494Z,984.02
2019-01-29T01:03:52.463Z,984.04
2019-01-29T01:04:52.448Z,984.04
2019-01-29T01:05:52.438Z,984.03
2019-01-29T01:06:52.427Z,984.08
2019-01-29T01:07:52.438Z,984.08
2019-01-29T01:08:52.404Z,984.09
2019-01-29T01:09:57.349Z,984.10
2019-01-29T01:10:53.382Z,984.15
2019-01-29T01:11:52.373Z,984.14
2019-01-29T01:12:52.394Z,984.16
2019-01-29T01:13:52.362Z,984.18
2019-01-29T01:14:52.339Z,984.20
2019-01-29T01:15:52.327Z,984.16
2019-01-29T01:16:52.323Z,984.20
2019-01-29T01:17:52.337Z,984.29
2019-01-29T01:18:52.295Z,984.26
2019-01-29T01:19:52.290Z,984.32
2019-01-29T01:20:52.276Z,984.30
2019-01-29T01:21:52.262Z,984.31
2019-01-29T01:22:52.281Z,984.32
2019-01-29T01:23:52.255Z,984.31
2019-01-29T01:24:52.228Z,984.36
2019-01-29T01:25:52.218Z,984.37
2019-01-29T01:26:52.219Z,984.38
2019-01-29T01:27:52.220Z,984.42
2019-01-29T01:28:52.186Z,984.44
2019-01-29T01:29:52.188Z,984.50
2019-01-29T01:30:52.161Z,984.55
2019-01-29T01:31:52.152Z,984.52
2019-01-29T01:32:52.162Z,984.51
2019-01-29T01:33:52.131Z,984.51
2019-01-29T01:34:52.128Z,984.53
2019-01-29T01:35:52.139Z,984.53
2019-01-29T01:36:52.096Z,984.57
2019-01-29T01:37:52.086Z,984.57
2019-01-29T01:38:52.073Z,984.56
2019-01-29T01:39:52.065Z,984.59
2019-01-29T01:40:52.086Z,984.58
2019-01-29T01:41:52.040Z,984.61
2019-01-29T01:42:52.032Z,984.64
2019-01-29T01:43:52.041Z,984.61
2019-01-29T01:44:52.008Z,984.62
2019-01-29T01:45:51.998Z,984.65
2019-01-29T01:46:52.026Z,984.67
2019-01-29T01:47:51.973Z,984.65
2019-01-29T01:48:51.991Z,984.62
2019-01-29T01:49:51.953Z,984.68
2019-01-29T01:50:51.940Z,984.68
2019-01-29T01:51:51.929Z,984.69
2019-01-29T01:52:59.129Z,984.74
2019-01-29T01:53:52.907Z,984.74
2019-01-29T01:54:51.898Z,984.71
2019-01-29T01:55:51.888Z,984.68
2019-01-29T01:56:51.876Z,984.70
2019-01-29T01:57:51.900Z,984.72
2019-01-29T01:58:51.864Z,984.72
2019-01-29T01:59:51.852Z,984.78
2019-01-29T02:00:51.829Z,984.78
2019-01-29T02:01:51.819Z,984.83
2019-01-29T02:02:51.833Z,984.81
2019-01-29T02:03:51.801Z,984.85
2019-01-29T02:04:51.796Z,984.86
2019-01-29T02:05:51.774Z,984.83
2019-01-29T02:06:51.763Z,984.83
2019-01-29T02:07:51.781Z,984.84
2019-01-29T02:08:51.740Z,984.90
2019-01-29T02:09:51.739Z,984.98
2019-01-29T02:10:51.721Z,984.97
2019-01-29T02:11:51.709Z,984.93
2019-01-29T02:12:51.722Z,984.94
2019-01-29T02:13:51.687Z,985.01
2019-01-29T02:14:51.704Z,985.02
2019-01-29T02:15:51.674Z,985.00
2019-01-29T02:16:51.653Z,985.00
2019-01-29T02:17:51.644Z,985.01
2019-01-29T02:18:51.632Z,984.97
2019-01-29T02:19:51.644Z,985.00
2019-01-29T02:20:51.609Z,985.02
2019-01-29T02:21:51.598Z,985.02
2019-01-29T02:22:51.621Z,985.03
2019-01-29T02:23:51.576Z,985.02
2019-01-29T02:24:51.594Z,984.98
2019-01-29T02:25:51.585Z,985.00
2019-01-29T02:26:51.544Z,984.96
2019-01-29T02:27:51.534Z,985.00
2019-01-29T02:28:51.541Z,985.01
2019-01-29T02:29:51.530Z,985.01
2019-01-29T02:30:51.518Z,985.02
2019-01-29T02:31:51.516Z,985.07
2019-01-29T02:32:51.483Z,985.07
2019-01-29T02:33:51.466Z,985.00
2019-01-29T02:34:51.460Z,985.02
2019-01-29T02:35:51.467Z,985.06
2019-01-29T02:36:51.433Z,985.04
2019-01-29T02:37:51.421Z,985.07
2019-01-29T02:38:51.412Z,985.03
2019-01-29T02:39:51.436Z,985.07
2019-01-29T02:40:51.396Z,985.05
2019-01-29T02:41:51.381Z,985.10
2019-01-29T02:42:51.371Z,985.04
2019-01-29T02:43:51.354Z,985.06
2019-01-29T02:44:51.387Z,985.09
2019-01-29T02:45:51.338Z,985.09
2019-01-29T02:46:51.321Z,985.08
2019-01-29T02:47:51.343Z,985.10
2019-01-29T02:48:51.301Z,985.07
2019-01-29T02:49:51.289Z,985.07
2019-01-29T02:50:51.318Z,985.09
2019-01-29T02:51:51.266Z,985.15
2019-01-29T02:52:51.271Z,985.13
2019-01-29T02:53:51.269Z,985.17
2019-01-29T02:54:51.237Z,985.11
2019-01-29T02:55:51.285Z,985.11
2019-01-29T02:56:51.215Z,985.10
2019-01-29T02:57:51.227Z,985.07
2019-01-29T02:58:51.207Z,985.06
2019-01-29T02:59:51.185Z,985.03
2019-01-29T03:00:51.191Z,985.06
2019-01-29T03:01:51.191Z,985.10
2019-01-29T03:02:51.190Z,985.15
2019-01-29T03:03:51.133Z,985.20
2019-01-29T03:04:53.376Z,985.17
2019-01-29T03:05:51.122Z,985.10
2019-01-29T03:06:51.101Z,985.17
2019-01-29T03:07:51.117Z,985.16
2019-01-29T03:08:51.118Z,985.20
2019-01-29T03:09:51.096Z,985.19
2019-01-29T03:10:51.072Z,985.25
2019-01-29T03:11:51.069Z,985.23
2019-01-29T03:12:51.039Z,985.25
2019-01-29T03:13:51.061Z,985.28
2019-01-29T03:14:51.021Z,985.28
2019-01-29T03:15:51.001Z,985.29
2019-01-29T03:16:50.990Z,985.34
2019-01-29T03:17:51.007Z,985.34
2019-01-29T03:18:50.968Z,985.29
2019-01-29T03:19:50.963Z,985.29
2019-01-29T03:20:50.975Z,985.35
2019-01-29T03:21:50.937Z,985.34
2019-01-29T03:22:50.934Z,985.38
2019-01-29T03:23:50.912Z,985.38
2019-01-29T03:24:50.918Z,985.36
2019-01-29T03:25:50.911Z,985.36
2019-01-29T03:26:50.885Z,985.36
2019-01-29T03:27:50.872Z,985.37
2019-01-29T03:28:50.861Z,985.45
2019-01-29T03:29:50.855Z,985.44
2019-01-29T03:30:50.854Z,985.42
2019-01-29T03:31:50.831Z,985.40
2019-01-29T03:32:50.817Z,985.46
2019-01-29T03:33:50.831Z,985.51
2019-01-29T03:34:50.799Z,985.50
2019-01-29T03:35:50.800Z,985.53
2019-01-29T03:36:50.770Z,985.52
2019-01-29T03:37:50.768Z,985.52
2019-01-29T03:38:50.771Z,985.55
2019-01-29T03:39:50.736Z,985.50
2019-01-29T03:40:50.786Z,985.53
2019-01-29T03:41:50.719Z,985.50
2019-01-29T03:42:50.717Z,985.58
2019-01-29T03:43:50.717Z,985.61
2019-01-29T03:44:50.684Z,985.58
2019-01-29T03:45:50.670Z,985.60
2019-01-29T03:46:50.659Z,985.66
2019-01-29T03:47:50.647Z,985.66
2019-01-29T03:48:50.677Z,985.69
2019-01-29T03:49:50.624Z,985.70
2019-01-29T03:50:50.614Z,985.70
2019-01-29T03:51:50.605Z,985.63
2019-01-29T03:52:50.623Z,985.67
2019-01-29T03:53:50.580Z,985.64
2019-01-29T03:54:50.580Z,985.70
2019-01-29T03:55:50.558Z,985.72
2019-01-29T03:56:50.546Z,985.78
2019-01-29T03:57:50.560Z,985.81
2019-01-29T03:58:50.538Z,985.81
2019-01-29T03:59:50.514Z,985.84
2019-01-29T04:00:50.540Z,985.90
2019-01-29T04:01:50.497Z,985.96
2019-01-29T04:02:50.486Z,985.88
2019-01-29T04:03:50.470Z,985.93
2019-01-29T04:04:50.459Z,985.92
2019-01-29T04:05:50.464Z,985.90
2019-01-29T04:06:50.452Z,985.90
2019-01-29T04:07:50.427Z,985.88
2019-01-29T04:08:50.418Z,985.95
2019-01-29T04:09:50.433Z,985.95
2019-01-29T04:10:50.395Z,985.96
2019-01-29T04:11:50.388Z,985.97
2019-01-29T04:12:50.371Z,985.99
2019-01-29T04:13:50.370Z,986.02
2019-01-29T04:14:50.385Z,986.06
2019-01-29T04:15:50.335Z,986.11
2019-01-29T04:16:50.325Z,986.11
2019-01-29T04:17:50.340Z,986.12
2019-01-29T04:18:50.304Z,986.16
2019-01-29T04:19:50.294Z,986.12
2019-01-29T04:20:50.309Z,986.15
2019-01-29T04:21:50.306Z,986.16
2019-01-29T04:22:50.266Z,986.16
2019-01-29T04:23:50.250Z,986.16
2019-01-29T04:24:50.236Z,986.13
2019-01-29T04:25:50.229Z,986.15
2019-01-29T04:26:50.237Z,986.12
2019-01-29T04:27:50.210Z,986.13
2019-01-29T04:28:50.191Z,986.07
2019-01-29T04:29:50.183Z,986.09
2019-01-29T04:30:50.181Z,986.05
2019-01-29T04:31:50.201Z,986.12
2019-01-29T04:32:50.147Z,986.14
2019-01-29T04:33:50.146Z,986.15
2019-01-29T04:34:50.127Z,986.15
2019-01-29T04:35:50.139Z,986.14
2019-01-29T04:36:50.131Z,986.15
2019-01-29T04:37:50.095Z,986.16
2019-01-29T04:38:50.110Z,986.18
2019-01-29T04:39:50.071Z,986.12
2019-01-29T04:40:50.059Z,986.18
2019-01-29T04:41:50.050Z,986.23
2019-01-29T04:42:50.078Z,986.19
2019-01-29T04:43:50.035Z,986.20
2019-01-29T04:44:50.018Z,986.29
2019-01-29T04:45:50.009Z,986.26
2019-01-29T04:46:49.998Z,986.28
2019-01-29T04:47:50.050Z,986.25
2019-01-29T04:48:49.995Z,986.24
2019-01-29T04:49:49.961Z,986.29
2019-01-29T04:50:49.949Z,986.27
2019-01-29T04:51:49.939Z,986.26
2019-01-29T04:52:49.956Z,986.19
2019-01-29T04:53:57.265Z,986.18
2019-01-29T04:54:50.912Z,986.16
2019-01-29T04:55:49.895Z,986.21
2019-01-29T04:56:49.882Z,986.24
2019-01-29T04:57:49.898Z,986.27
2019-01-29T04:58:49.872Z,986.24
2019-01-29T04:59:49.853Z,986.24
2019-01-29T05:00:49.858Z,986.30
2019-01-29T05:01:49.827Z,986.26
2019-01-29T05:02:49.844Z,986.24
2019-01-29T05:03:49.808Z,986.26
2019-01-29T05:04:49.793Z,986.18
2019-01-29T05:05:49.802Z,986.19
2019-01-29T05:06:49.919Z,986.15
2019-01-29T05:07:49.769Z,986.13
2019-01-29T05:08:49.778Z,986.13
2019-01-29T05:09:49.738Z,986.13
2019-01-29T05:10:49.728Z,986.11
2019-01-29T05:11:49.755Z,986.11
2019-01-29T05:12:49.712Z,986.08
2019-01-29T05:13:49.719Z,986.07
2019-01-29T05:14:49.682Z,986.13
2019-01-29T05:15:49.673Z,986.13
2019-01-29T05:16:49.660Z,986.17
2019-01-29T05:17:49.660Z,986.20
2019-01-29T05:18:49.665Z,986.18
2019-01-29T05:19:49.669Z,986.24
2019-01-29T05:20:49.620Z,986.23
2019-01-29T05:21:49.605Z,986.24
2019-01-29T05:22:49.606Z,986.26
2019-01-29T05:23:49.583Z,986.23
2019-01-29T05:24:49.598Z,986.27
2019-01-29T05:25:49.584Z,986.31
2019-01-29T05:26:49.549Z,986.29
2019-01-29T05:27:49.540Z,986.30
2019-01-29T05:28:49.545Z,986.26
2019-01-29T05:29:49.515Z,986.33
2019-01-29T05:30:49.532Z,986.30
2019-01-29T05:31:49.498Z,986.33
2019-01-29T05:32:49.493Z,986.35
2019-01-29T05:33:49.472Z,986.33
2019-01-29T05:34:49.465Z,986.33
2019-01-29T05:35:49.474Z,986.32
2019-01-29T05:36:49.442Z,986.31
2019-01-29T05:37:49.433Z,986.33
2019-01-29T05:38:49.431Z,986.31
2019-01-29T05:39:49.410Z,986.40
2019-01-29T05:40:49.423Z,986.38
2019-01-29T05:41:49.387Z,986.38
2019-01-29T05:42:49.372Z,986.34
2019-01-29T05:43:49.362Z,986.33
2019-01-29T05:44:49.363Z,986.35
2019-01-29T05:45:49.371Z,986.30
2019-01-29T05:46:49.335Z,986.39
2019-01-29T05:47:49.320Z,986.38
2019-01-29T05:48:49.308Z,986.38
2019-01-29T05:49:49.297Z,986.41
2019-01-29T05:50:49.327Z,986.37
2019-01-29T05:51:49.277Z,986.40
2019-01-29T05:52:49.265Z,986.39
2019-01-29T05:53:49.265Z,986.41
2019-01-29T05:54:49.240Z,986.42
2019-01-29T05:55:49.262Z,986.42
2019-01-29T05:56:49.227Z,986.47
2019-01-29T05:57:49.205Z,986.45
2019-01-29T05:58:49.195Z,986.45
2019-01-29T05:59:49.187Z,986.46
2019-01-29T06:00:49.199Z,986.41
2019-01-29T06:01:49.165Z,986.48
2019-01-29T06:02:49.165Z,986.41
2019-01-29T06:03:49.169Z,986.46
2019-01-29T06:04:49.133Z,986.44
2019-01-29T06:05:49.122Z,986.50
2019-01-29T06:06:49.106Z,986.47
2019-01-29T06:07:49.095Z,986.53
2019-01-29T06:08:49.109Z,986.49
2019-01-29T06:09:49.072Z,986.50
2019-01-29T06:10:49.089Z,986.53
2019-01-29T06:11:49.062Z,986.55
2019-01-29T06:12:49.089Z,986.51
2019-01-29T06:13:49.069Z,986.54
2019-01-29T06:14:49.019Z,986.61
2019-01-29T06:15:49.046Z,986.54
2019-01-29T06:16:49.000Z,986.51
2019-01-29T06:17:48.991Z,986.57
2019-01-29T06:18:48.984Z,986.54
2019-01-29T06:19:48.963Z,986.57
2019-01-29T06:20:49.021Z,986.55
2019-01-29T06:21:48.941Z,986.55
2019-01-29T06:22:48.972Z,986.52
2019-01-29T06:23:48.943Z,986.52
2019-01-29T06:24:48.927Z,986.50
2019-01-29T06:25:48.900Z,986.51
2019-01-29T06:26:48.889Z,986.57
2019-01-29T06:27:48.874Z,986.56
2019-01-29T06:28:48.886Z,986.60
2019-01-29T06:29:48.855Z,986.58
2019-01-29T06:30:48.854Z,986.58
2019-01-29T06:31:48.870Z,986.57
2019-01-29T06:32:48.822Z,986.61
2019-01-29T06:33:48.811Z,986.61
2019-01-29T06:34:48.797Z,986.64
2019-01-29T06:35:48.789Z,986.61
2019-01-29T06:36:50.805Z,986.63
2019-01-29T06:37:48.811Z,986.65
2019-01-29T06:38:48.751Z,986.66
2019-01-29T06:39:48.743Z,986.69
2019-01-29T06:40:48.736Z,986.65
2019-01-29T06:41:48.726Z,986.67
2019-01-29T06:42:48.732Z,986.70
2019-01-29T06:43:48.698Z,986.70
2019-01-29T06:44:48.685Z,986.67
2019-01-29T06:45:48.678Z,986.72
2019-01-29T06:46:48.665Z,986.72
2019-01-29T06:47:48.702Z,986.74
2019-01-29T06:48:48.645Z,986.75
2019-01-29T06:49:48.631Z,986.75
2019-01-29T06:50:48.624Z,986.70
2019-01-29T06:51:48.608Z,986.69
2019-01-29T06:52:48.624Z,986.71
2019-01-29T06:53:48.618Z,986.74
2019-01-29T06:54:48.579Z,986.73
2019-01-29T06:55:48.572Z,986.71
2019-01-29T06:56:48.559Z,986.70
2019-01-29T06:57:55.168Z,986.69
2019-01-29T06:58:49.531Z,986.72
2019-01-29T06:59:48.522Z,986.74
2019-01-29T07:00:48.534Z,986.82
2019-01-29T07:01:48.506Z,986.80
2019-01-29T07:02:48.508Z,986.83
2019-01-29T07:03:48.474Z,986.87
2019-01-29T07:04:48.467Z,986.84
2019-01-29T07:05:48.484Z,986.87
2019-01-29T07:06:48.441Z,986.86
2019-01-29T07:07:48.439Z,986.87
2019-01-29T07:08:48.423Z,986.86
2019-01-29T07:09:48.407Z,986.86
2019-01-29T07:10:48.440Z,986.87
2019-01-29T07:11:48.394Z,986.91
2019-01-29T07:12:48.375Z,986.92
2019-01-29T07:13:48.382Z,986.92
2019-01-29T07:14:48.359Z,986.95
2019-01-29T07:15:48.367Z,986.97
2019-01-29T07:16:48.332Z,986.98
2019-01-29T07:17:48.320Z,986.95
2019-01-29T07:18:48.309Z,986.99
2019-01-29T07:19:48.298Z,986.99
2019-01-29T07:20:48.324Z,987.03
2019-01-29T07:21:48.284Z,987.03
2019-01-29T07:22:48.264Z,987.04
2019-01-29T07:23:48.260Z,987.05
2019-01-29T07:24:48.242Z,987.02
2019-01-29T07:25:48.256Z,987.09
2019-01-29T07:26:48.220Z,987.08
2019-01-29T07:27:48.218Z,987.06
2019-01-29T07:28:48.221Z,987.08
2019-01-29T07:29:48.186Z,987.06
2019-01-29T07:30:48.179Z,987.08
2019-01-29T07:31:48.165Z,987.04
2019-01-29T07:32:48.156Z,987.07
2019-01-29T07:33:48.171Z,987.13
2019-01-29T07:34:48.131Z,987.15
2019-01-29T07:35:48.123Z,987.15
2019-01-29T07:36:48.109Z,987.18
2019-01-29T07:37:48.103Z,987.20
2019-01-29T07:38:48.109Z,987.18
2019-01-29T07:39:48.077Z,987.19
2019-01-29T07:40:48.174Z,987.16
2019-01-29T07:41:48.091Z,987.17
2019-01-29T07:42:48.042Z,987.20
2019-01-29T07:43:48.064Z,987.22
2019-01-29T07:44:48.023Z,987.24
2019-01-29T07:45:48.010Z,987.24
2019-01-29T07:46:47.999Z,987.24
2019-01-29T07:47:48.001Z,987.21
2019-01-29T07:48:48.003Z,987.23
2019-01-29T07:49:47.996Z,987.22
2019-01-29T07:50:47.974Z,987.25
2019-01-29T07:51:47.943Z,987.25
2019-01-29T07:52:47.933Z,987.25
2019-01-29T07:53:47.929Z,987.22
2019-01-29T07:54:51.273Z,987.23
2019-01-29T07:55:47.928Z,987.24
2019-01-29T07:56:47.907Z,987.17
2019-01-29T07:57:47.882Z,987.18
2019-01-29T07:58:49.265Z,987.18
2019-01-29T07:59:47.855Z,987.20
2019-01-29T08:00:47.886Z,987.16
2019-01-29T08:01:47.831Z,987.23
2019-01-29T08:02:47.838Z,987.27
2019-01-29T08:03:47.825Z,987.26
2019-01-29T08:04:47.801Z,987.24
2019-01-29T08:05:47.791Z,987.25
2019-01-29T08:06:47.808Z,987.28
2019-01-29T08:07:47.775Z,987.27
2019-01-29T08:08:47.764Z,987.28
2019-01-29T08:09:47.769Z,987.31
2019-01-29T08:10:47.736Z,987.32
2019-01-29T08:11:47.788Z,987.25
2019-01-29T08:12:47.714Z,987.30
2019-01-29T08:13:47.704Z,987.28
2019-01-29T08:14:47.725Z,987.30
2019-01-29T08:15:47.692Z,987.37
2019-01-29T08:16:47.665Z,987.31
2019-01-29T08:17:47.664Z,987.32
2019-01-29T08:18:47.674Z,987.35
2019-01-29T08:19:47.633Z,987.26
2019-01-29T08:20:47.634Z,987.27
2019-01-29T08:21:47.635Z,987.29
2019-01-29T08:22:47.603Z,987.27
2019-01-29T08:23:47.593Z,987.31
2019-01-29T08:24:51.968Z,987.35
2019-01-29T08:25:48.593Z,987.32
2019-01-29T08:26:47.577Z,987.34
2019-01-29T08:27:47.543Z,987.30
2019-01-29T08:28:47.533Z,987.35
2019-01-29T08:29:47.522Z,987.33
2019-01-29T08:30:47.512Z,987.36
2019-01-29T08:31:47.568Z,987.36
2019-01-29T08:32:47.488Z,987.37
2019-01-29T08:33:47.501Z,987.39
2019-01-29T08:34:47.467Z,987.42
2019-01-29T08:35:47.482Z,987.39
2019-01-29T08:36:47.444Z,987.41
2019-01-29T08:37:47.436Z,987.39
2019-01-29T08:38:47.427Z,987.36
2019-01-29T08:39:47.434Z,987.41
2019-01-29T08:40:47.400Z,987.39
2019-01-29T08:41:47.412Z,987.45
2019-01-29T08:42:47.380Z,987.43
2019-01-29T08:43:47.382Z,987.38
2019-01-29T08:44:47.359Z,987.37
2019-01-29T08:45:47.376Z,987.44
2019-01-29T08:46:47.338Z,987.42
2019-01-29T08:47:47.322Z,987.42
2019-01-29T08:48:47.315Z,987.47
2019-01-29T08:49:47.311Z,987.42
2019-01-29T08:50:47.311Z,987.46
2019-01-29T08:51:47.281Z,987.43
2019-01-29T08:52:47.293Z,987.44
2019-01-29T08:53:47.278Z,987.46
2019-01-29T08:54:47.254Z,987.48
2019-01-29T08:55:47.260Z,987.49
2019-01-29T08:56:47.252Z,987.53
2019-01-29T08:57:47.213Z,987.50
2019-01-29T08:58:47.204Z,987.49
2019-01-29T08:59:47.193Z,987.44
2019-01-29T09:00:47.202Z,987.50
2019-01-29T09:01:47.177Z,987.52
2019-01-29T09:02:47.941Z,987.46
2019-01-29T09:03:47.145Z,987.52
2019-01-29T09:04:47.155Z,987.57
2019-01-29T09:05:47.123Z,987.53
2019-01-29T09:06:47.134Z,987.56
2019-01-29T09:07:47.103Z,987.51
2019-01-29T09:08:47.098Z,987.51
2019-01-29T09:09:47.105Z,987.53
2019-01-29T09:10:47.070Z,987.53
2019-01-29T09:11:47.092Z,987.53
2019-01-29T09:12:47.044Z,987.51
2019-01-29T09:13:47.034Z,987.50
2019-01-29T09:14:47.029Z,987.50
2019-01-29T09:15:47.011Z,987.50
2019-01-29T09:16:47.021Z,987.50
2019-01-29T09:17:46.990Z,987.48
2019-01-29T09:18:46.981Z,987.41
2019-01-29T09:19:46.966Z,987.39
2019-01-29T09:20:46.996Z,987.40
2019-01-29T09:21:46.947Z,987.42
2019-01-29T09:22:46.941Z,987.47
2019-01-29T09:23:46.945Z,987.45
2019-01-29T09:24:46.909Z,987.43
2019-01-29T09:25:46.898Z,987.43
2019-01-29T09:26:46.900Z,987.43
2019-01-29T09:27:46.901Z,987.46
2019-01-29T09:28:46.870Z,987.46
2019-01-29T09:29:46.853Z,987.48
2019-01-29T09:30:46.844Z,987.46
2019-01-29T09:31:46.831Z,987.45
2019-01-29T09:32:46.853Z,987.45
2019-01-29T09:33:46.813Z,987.49
2019-01-29T09:34:46.797Z,987.47
2019-01-29T09:35:46.789Z,987.40
2019-01-29T09:36:46.791Z,987.45
2019-01-29T09:37:46.796Z,987.44
2019-01-29T09:38:46.874Z,987.43
2019-01-29T09:39:46.748Z,987.46
2019-01-29T09:40:46.730Z,987.44
2019-01-29T09:41:46.787Z,987.39
2019-01-29T09:42:46.731Z,987.39
2019-01-29T09:43:46.721Z,987.44
2019-01-29T09:44:46.692Z,987.41
2019-01-29T09:45:46.679Z,987.44
2019-01-29T09:46:46.664Z,987.41
2019-01-29T09:47:46.676Z,987.49
2019-01-29T09:48:46.655Z,987.47
2019-01-29T09:49:46.654Z,987.47
2019-01-29T09:50:46.624Z,987.53
2019-01-29T09:51:46.618Z,987.50
2019-01-29T09:52:46.596Z,987.51
2019-01-29T09:53:46.622Z,987.52
2019-01-29T09:54:46.575Z,987.51
2019-01-29T09:55:46.571Z,987.54
2019-01-29T09:56:46.553Z,987.49
2019-01-29T09:57:46.541Z,987.50
2019-01-29T09:58:46.614Z,987.50
2019-01-29T09:59:46.531Z,987.49
2019-01-29T10:00:46.526Z,987.52
2019-01-29T10:01:46.495Z,987.53
2019-01-29T10:02:46.500Z,987.52
2019-01-29T10:03:46.495Z,987.52
2019-01-29T10:04:46.462Z,987.50
2019-01-29T10:05:46.479Z,987.44
2019-01-29T10:06:46.443Z,987.42
2019-01-29T10:07:46.432Z,987.43
2019-01-29T10:08:46.418Z,987.42
2019-01-29T10:09:46.408Z,987.41
2019-01-29T10:10:46.421Z,987.37
2019-01-29T10:11:46.388Z,987.39
2019-01-29T10:12:46.385Z,987.37
2019-01-29T10:13:46.362Z,987.32
2019-01-29T10:14:46.350Z,987.36
2019-01-29T10:15:46.362Z,987.35
2019-01-29T10:16:46.328Z,987.33
2019-01-29T10:17:46.331Z,987.33
2019-01-29T10:18:46.306Z,987.28
2019-01-29T10:19:46.299Z,987.31
2019-01-29T10:20:46.306Z,987.27
2019-01-29T10:21:46.275Z,987.25
2019-01-29T10:22:46.263Z,987.24
2019-01-29T10:23:46.254Z,987.26
2019-01-29T10:24:46.250Z,987.21
2019-01-29T10:25:46.257Z,987.24
2019-01-29T10:26:46.219Z,987.21
2019-01-29T10:27:46.207Z,987.18
2019-01-29T10:28:46.220Z,987.17
2019-01-29T10:29:46.183Z,987.16
2019-01-29T10:30:46.204Z,987.21
2019-01-29T10:31:46.160Z,987.18
2019-01-29T10:32:46.149Z,987.21
2019-01-29T10:33:46.138Z,987.16
2019-01-29T10:34:46.149Z,987.15
2019-01-29T10:35:46.116Z,987.16
2019-01-29T10:36:46.107Z,987.14
2019-01-29T10:37:46.102Z,987.12
2019-01-29T10:38:46.101Z,987.14
2019-01-29T10:39:46.093Z,987.12
2019-01-29T10:40:46.064Z,987.13
2019-01-29T10:41:46.049Z,987.13
2019-01-29T10:42:46.046Z,987.08
2019-01-29T10:43:46.026Z,987.06
2019-01-29T10:44:46.038Z,987.13
2019-01-29T10:45:46.005Z,987.13
2019-01-29T10:46:45.996Z,987.08
2019-01-29T10:47:45.982Z,987.05
2019-01-29T10:48:45.996Z,987.01
2019-01-29T10:49:45.959Z,987.03
2019-01-29T10:50:45.952Z,987.02
2019-01-29T10:51:45.938Z,987.00
2019-01-29T10:52:45.930Z,987.02
2019-01-29T10:53:45.955Z,986.99
2019-01-29T10:54:45.915Z,987.00
2019-01-29T10:55:47.362Z,986.99
2019-01-29T10:56:45.880Z,987.04
2019-01-29T10:57:45.886Z,987.00
2019-01-29T10:58:45.875Z,987.05
2019-01-29T10:59:45.847Z,987.01
2019-01-29T11:00:45.873Z,987.01
2019-01-29T11:01:45.827Z,986.97
2019-01-29T11:02:45.815Z,986.98
2019-01-29T11:03:45.804Z,987.00
2019-01-29T11:04:45.815Z,986.99
2019-01-29T11:05:45.815Z,986.94
2019-01-29T11:06:45.771Z,986.94
2019-01-29T11:07:45.770Z,986.91
2019-01-29T11:08:45.746Z,986.93
2019-01-29T11:09:45.739Z,986.91
2019-01-29T11:10:45.862Z,986.95
2019-01-29T11:11:45.712Z,986.89
2019-01-29T11:12:45.701Z,986.91
2019-01-29T11:13:45.716Z,986.88
2019-01-29T11:14:45.679Z,986.89
2019-01-29T11:15:45.678Z,986.94
2019-01-29T11:16:45.658Z,986.90
2019-01-29T11:17:45.648Z,986.86
2019-01-29T11:18:45.661Z,986.83
2019-01-29T11:19:45.631Z,986.79
2019-01-29T11:20:45.611Z,986.82
2019-01-29T11:21:45.606Z,986.83
2019-01-29T11:22:45.593Z,986.80
2019-01-29T11:23:45.647Z,986.75
2019-01-29T11:24:45.582Z,986.74
2019-01-29T11:25:45.573Z,986.74
2019-01-29T11:26:45.553Z,986.72
2019-01-29T11:27:45.554Z,986.70
2019-01-29T11:28:45.542Z,986.65
2019-01-29T11:29:45.513Z,986.69
2019-01-29T11:30:45.502Z,986.63
2019-01-29T11:31:45.540Z,986.59
2019-01-29T11:32:45.506Z,986.58
2019-01-29T11:33:45.478Z,986.56
2019-01-29T11:34:45.478Z,986.62
2019-01-29T11:35:45.453Z,986.58
2019-01-29T11:36:45.449Z,986.56
2019-01-29T11:37:45.423Z,986.55
2019-01-29T11:38:45.417Z,986.55
2019-01-29T11:39:45.428Z,986.54
2019-01-29T11:40:45.394Z,986.52
2019-01-29T11:41:45.382Z,986.55
2019-01-29T11:42:45.385Z,986.50
2019-01-29T11:43:45.389Z,986.50
2019-01-29T11:44:45.343Z,986.51
2019-01-29T11:45:45.331Z,986.47
2019-01-29T11:46:45.320Z,986.44
2019-01-29T11:47:45.312Z,986.44
2019-01-29T11:48:45.335Z,986.46
2019-01-29T11:49:45.294Z,986.47
2019-01-29T11:50:45.278Z,986.39
2019-01-29T11:51:45.278Z,986.43
2019-01-29T11:52:45.260Z,986.51
2019-01-29T11:53:45.263Z,986.45
2019-01-29T11:54:45.235Z,986.48
2019-01-29T11:55:45.221Z,986.49
2019-01-29T11:56:45.209Z,986.46
2019-01-29T11:57:46.859Z,986.47
2019-01-29T11:58:45.219Z,986.52
2019-01-29T11:59:45.175Z,986.41
2019-01-29T12:00:45.167Z,986.39
2019-01-29T12:01:45.156Z,986.37
2019-01-29T12:02:45.142Z,986.44
2019-01-29T12:03:45.160Z,986.44
2019-01-29T12:04:45.126Z,986.40
2019-01-29T12:05:45.107Z,986.41
2019-01-29T12:06:45.099Z,986.38
2019-01-29T12:07:45.089Z,986.37
2019-01-29T12:08:45.101Z,986.32
2019-01-29T12:09:45.065Z,986.33
2019-01-29T12:10:45.055Z,986.35
2019-01-29T12:11:45.081Z,986.32
2019-01-29T12:12:45.030Z,986.35
2019-01-29T12:13:45.019Z,986.34
2019-01-29T12:14:45.006Z,986.28
2019-01-29T12:15:45.017Z,986.30
2019-01-29T12:16:44.990Z,986.28
2019-01-29T12:17:44.983Z,986.27
2019-01-29T12:18:44.960Z,986.25
2019-01-29T12:19:44.950Z,986.24
2019-01-29T12:20:44.970Z,986.24
2019-01-29T12:21:44.931Z,986.23
2019-01-29T12:22:44.916Z,986.22
2019-01-29T12:23:44.921Z,986.21
2019-01-29T12:24:44.897Z,986.18
2019-01-29T12:25:44.906Z,986.19
2019-01-29T12:26:44.876Z,986.19
2019-01-29T12:27:44.859Z,986.19
2019-01-29T12:28:44.886Z,986.23